KCOU/COU METAR and TAF weather

Enter ICAO airport designator
Station Type Date Time Source
KCOU METAR 2018/01/17 05:54 UTC NOAA

KCOU 170554Z AUTO 27006KT 10SM CLR M17/M19 A3068 RMK AO2 SLP410 T11671189 11144 21172 411331200 58005


Station Type Date Time Source
KCOU Decoded METAR 2018/01/17 05:54 UTC NOAA

COLUMBIA REGIONAL AIRPORT, MO, United States (KCOU) 38-49N 092-13W 271M
Jan 17, 2018 - 12:54 AM EST / 2018.01.17 0554 UTC
Wind: from the W (270 degrees) at 7 MPH (6 KT):0
Visibility: 10 mile(s):0
Sky conditions: clear
Temperature: 1.9 F (-16.7 C)
Windchill: -11 F (-24 C):2
Dew Point: -2.0 F (-18.9 C)
Relative Humidity: 83%
Pressure (altimeter): 30.68 in. Hg (1038 hPa)
Pressure tendency: 0.01 inches (0.5 hPa) lower than three hours ago
ob: KCOU 170554Z AUTO 27006KT 10SM CLR M17/M19 A3068 RMK AO2 SLP410 T11671189 11144 21172 411331200 58005
cycle: 6

Station Type Date Time Source
KCOU TAF 2018/01/17 06:27 UTC NOAA

TAF KCOU 170524Z 1706/1806 27005KT P6SM FEW250
FM172000 23008KT P6SM SKC


Example: see airport list